Time;durP1;ratioP1;P1;durP2;ratioP2;P2;SDS_P1;SDS_P2;PMS_P1;PMS_P2;Temp;Humidity;BMP_temperature;BMP_pressure;BME280_temperature;BME280_humidity;BME280_pressure;Samples;Min_cycle;Max_cycle;Signal;HPM_P1;HPM_P2
2022/12/08 18:36:59;;;;;;;15.88;8.50;;;;;;;;;;5841785;22;7295550;-84
2022/12/08 18:39:36;;;;;;;18.80;9.20;;;;;;;;;;6102136;23;20413;-84
2022/12/08 18:42:21;;;;;;;20.35;10.65;;;;;;;;;;6129150;23;20502;-84
2022/12/08 18:45:05;;;;;;;23.15;11.25;;;;;;;;;;6089132;23;20421;-85
2022/12/08 18:47:46;;;;;;;25.05;11.80;;;;;;;;;;6078000;23;20042;-85
2022/12/08 18:50:43;;;;;;;18.60;10.63;;;;;;;;;;6084116;23;20048;-85
2022/12/08 18:53:21;;;;;;;;;;;;;;;;;;;;;
2022/12/08 19:06:28;;;;;;;;;;;;;;;;;;;;;
2022/12/08 19:09:34;;;;;;;23.00;11.80;;;;;;;;;;5990675;23;21137;-85
2022/12/08 19:12:57;;;;;;;21.90;11.25;;;;;;;;;;5930649;23;20464;-86
2022/12/08 19:15:54;;;;;;;21.83;11.50;;;;;;;;;;5890950;23;20048;-85
2022/12/08 19:18:43;;;;;;;;;;;;;;;;;;;;;
2022/12/08 19:21:09;;;;;;;20.23;10.93;;;;;;;;;;5982541;23;20536;-86
2022/12/08 19:23:35;;;;;;;24.58;12.20;;;;;;;;;;5983771;23;20030;-85
2022/12/08 19:29:22;;;;;;;21.98;11.25;;;;;;;;;;6007346;23;20123;-85
2022/12/08 19:31:48;;;;;;;23.90;12.10;;;;;;;;;;5961152;23;20036;-85
2022/12/08 19:34:13;;;;;;;20.88;11.35;;;;;;;;;;5960005;23;20023;-85
2022/12/08 19:36:42;;;;;;;19.63;11.20;;;;;;;;;;5981156;23;20366;-85
2022/12/08 19:44:53;;;;;;;25.10;11.38;;;;;;;;;;6118090;23;20091;-86
2022/12/08 19:47:23;;;;;;;21.90;10.95;;;;;;;;;;6094224;23;20025;-86
2022/12/08 19:49:49;;;;;;;24.10;12.52;;;;;;;;;;6094201;23;20014;-84
2022/12/08 19:52:15;;;;;;;23.67;10.88;;;;;;;;;;6116634;23;20026;-85
2022/12/08 19:54:42;;;;;;;22.77;10.25;;;;;;;;;;6119945;23;20018;-85
2022/12/08 19:57:07;;;;;;;23.57;11.50;;;;;;;;;;6092828;23;20041;-86
2022/12/08 19:59:36;;;;;;;23.33;11.60;;;;;;;;;;6092300;23;20481;-85
2022/12/08 20:02:01;;;;;;;19.70;10.25;;;;;;;;;;6103277;23;20018;-85
2022/12/08 20:04:27;;;;;;;24.77;10.23;;;;;;;;;;6116222;23;20340;-84
2022/12/08 20:06:54;;;;;;;20.85;9.98;;;;;;;;;;6116851;23;20030;-84
2022/12/08 20:09:20;;;;;;;20.98;10.40;;;;;;;;;;6092963;23;20467;-86
2022/12/08 20:11:46;;;;;;;18.27;9.73;;;;;;;;;;6116710;23;20014;-85
2022/12/08 20:14:11;;;;;;;21.33;11.02;;;;;;;;;;6082750;23;20076;-85
2022/12/08 20:16:40;;;;;;;20.83;10.35;;;;;;;;;;6093001;23;20418;-84
2022/12/08 20:19:06;;;;;;;19.45;10.45;;;;;;;;;;6093362;23;20022;-86
2022/12/08 20:21:37;;;;;;;23.23;10.95;;;;;;;;;;6092363;23;20793;-85
2022/12/08 20:24:03;;;;;;;19.55;10.10;;;;;;;;;;6078448;23;20069;-85
2022/12/08 20:26:29;;;;;;;19.38;9.43;;;;;;;;;;6115254;23;20021;-84
2022/12/08 20:28:54;;;;;;;21.27;10.20;;;;;;;;;;6116737;23;20730;-85
2022/12/08 20:31:25;;;;;;;18.35;9.25;;;;;;;;;;6116356;23;20014;-85
2022/12/08 20:33:53;;;;;;;19.48;9.77;;;;;;;;;;6118239;23;20025;-86
2022/12/08 20:36:20;;;;;;;20.15;10.20;;;;;;;;;;6116736;23;20026;-84
2022/12/08 20:38:47;;;;;;;22.03;11.03;;;;;;;;;;6092728;23;20021;-84
2022/12/08 20:41:14;;;;;;;21.70;10.07;;;;;;;;;;6116281;23;20013;-83
2022/12/08 20:43:41;;;;;;;22.50;10.05;;;;;;;;;;6093087;23;21091;-84
2022/12/08 20:46:11;;;;;;;19.73;10.13;;;;;;;;;;6092703;23;20045;-85
2022/12/08 20:48:37;;;;;;;20.20;10.05;;;;;;;;;;6092695;23;20025;-85
2022/12/08 20:51:02;;;;;;;19.92;10.13;;;;;;;;;;6092133;23;20014;-85
2022/12/08 20:53:31;;;;;;;18.88;10.13;;;;;;;;;;6079830;23;20084;-84
2022/12/08 20:55:56;;;;;;;21.45;11.23;;;;;;;;;;6115859;23;20013;-84
2022/12/08 20:58:22;;;;;;;20.67;10.07;;;;;;;;;;6115757;23;20018;-85
2022/12/08 21:00:48;;;;;;;19.70;10.23;;;;;;;;;;6080825;23;20022;-86
2022/12/08 21:03:14;;;;;;;18.55;9.45;;;;;;;;;;6092831;23;20010;-85
2022/12/08 21:05:46;;;;;;;19.77;9.23;;;;;;;;;;6116180;23;20014;-84
2022/12/08 21:08:13;;;;;;;19.75;9.27;;;;;;;;;;6092857;23;20089;-84
2022/12/08 21:10:38;;;;;;;22.10;10.05;;;;;;;;;;6116533;23;20021;-85
2022/12/08 21:13:04;;;;;;;19.88;9.73;;;;;;;;;;6092234;23;20018;-85
2022/12/08 21:15:34;;;;;;;16.98;9.75;;;;;;;;;;6115823;23;20018;-84
2022/12/08 21:18:14;;;;;;;17.30;8.88;;;;;;;;;;6116551;23;20024;-84
2022/12/08 21:20:42;;;;;;;18.30;9.90;;;;;;;;;;6114558;23;20020;-84
2022/12/08 21:23:07;;;;;;;20.33;9.35;;;;;;;;;;6116932;23;20020;-85
2022/12/08 21:25:33;;;;;;;18.40;9.02;;;;;;;;;;6115410;23;20375;-85
2022/12/08 21:27:58;;;;;;;19.33;9.65;;;;;;;;;;6092322;23;20022;-85
2022/12/08 21:30:24;;;;;;;17.25;9.20;;;;;;;;;;6115497;23;20347;-83
2022/12/08 21:32:49;;;;;;;17.88;9.13;;;;;;;;;;6116979;23;20402;-85
2022/12/08 21:35:15;;;;;;;17.08;8.60;;;;;;;;;;6091171;23;20394;-85
2022/12/08 21:37:40;;;;;;;17.60;8.90;;;;;;;;;;6092811;23;20223;-83
2022/12/08 21:40:06;;;;;;;19.65;9.57;;;;;;;;;;6092844;23;20030;-83
2022/12/08 21:42:44;;;;;;;19.38;9.85;;;;;;;;;;6091620;23;20104;-83
2022/12/08 21:45:18;;;;;;;20.33;9.70;;;;;;;;;;6116300;23;20029;-84
2022/12/08 21:47:44;;;;;;;21.02;9.65;;;;;;;;;;6091133;23;20032;-84
2022/12/08 21:50:10;;;;;;;18.87;9.67;;;;;;;;;;6092052;23;20336;-83
2022/12/08 21:52:51;;;;;;;20.90;10.27;;;;;;;;;;6099821;23;20014;-84
2022/12/08 21:55:28;;;;;;;19.67;9.40;;;;;;;;;;6089733;23;20018;-83
2022/12/08 21:57:59;;;;;;;18.63;9.00;;;;;;;;;;6115456;23;20037;-85
2022/12/08 22:00:25;;;;;;;17.90;8.82;;;;;;;;;;6091565;23;20506;-85
2022/12/08 22:02:54;;;;;;;19.80;9.73;;;;;;;;;;6092226;23;20034;-85
2022/12/08 22:05:20;;;;;;;19.35;9.80;;;;;;;;;;6091782;23;20022;-84
2022/12/08 22:07:45;;;;;;;20.40;9.63;;;;;;;;;;6091845;23;20041;-84
2022/12/08 22:10:11;;;;;;;17.45;9.10;;;;;;;;;;6091695;23;20025;-84
2022/12/08 22:12:36;;;;;;;18.92;9.43;;;;;;;;;;6116677;23;20014;-85
2022/12/08 22:15:06;;;;;;;19.05;10.40;;;;;;;;;;6116278;23;20136;-85
2022/12/08 22:17:36;;;;;;;20.70;10.75;;;;;;;;;;6115961;23;20021;-85
2022/12/08 22:20:02;;;;;;;20.55;10.13;;;;;;;;;;6091967;23;20010;-85
2022/12/08 22:22:28;;;;;;;23.50;10.93;;;;;;;;;;6115733;23;20010;-86
2022/12/08 22:24:53;;;;;;;21.27;10.60;;;;;;;;;;6116400;23;20025;-86
2022/12/08 22:27:19;;;;;;;20.77;10.30;;;;;;;;;;6092032;23;20026;-85
2022/12/08 22:29:44;;;;;;;19.88;11.40;;;;;;;;;;6116537;23;20022;-85
2022/12/08 22:32:09;;;;;;;22.42;10.75;;;;;;;;;;6092414;23;20700;-84
2022/12/08 22:34:35;;;;;;;22.15;11.20;;;;;;;;;;6092546;23;20080;-85
2022/12/08 22:37:00;;;;;;;24.05;12.60;;;;;;;;;;6115920;23;20346;-85
2022/12/08 22:39:26;;;;;;;20.25;11.43;;;;;;;;;;6092162;23;20017;-85
2022/12/08 22:41:51;;;;;;;24.90;12.45;;;;;;;;;;6091728;23;20089;-86
2022/12/08 22:44:17;;;;;;;22.67;12.13;;;;;;;;;;6116692;23;20010;-85
2022/12/08 22:46:42;;;;;;;23.35;12.75;;;;;;;;;;6092061;23;20017;-86
2022/12/08 22:49:08;;;;;;;25.42;12.00;;;;;;;;;;6117212;23;20098;-85
2022/12/08 22:51:36;;;;;;;25.27;13.20;;;;;;;;;;6091618;23;20022;-85
2022/12/08 22:54:02;;;;;;;26.50;12.65;;;;;;;;;;6091957;23;20038;-85
2022/12/08 22:56:27;;;;;;;23.90;11.82;;;;;;;;;;6115048;23;20029;-84
2022/12/08 22:58:53;;;;;;;22.05;11.68;;;;;;;;;;6092520;23;20017;-85
2022/12/08 23:01:23;;;;;;;20.75;11.02;;;;;;;;;;6115202;23;20021;-85
2022/12/08 23:03:49;;;;;;;22.23;11.55;;;;;;;;;;6116669;23;20025;-84
2022/12/08 23:06:17;;;;;;;24.45;12.30;;;;;;;;;;6072988;23;20030;-84
2022/12/08 23:08:44;;;;;;;24.55;11.77;;;;;;;;;;6091899;23;20010;-83
2022/12/08 23:11:09;;;;;;;30.80;14.75;;;;;;;;;;6067194;23;20473;-83
2022/12/08 23:13:36;;;;;;;26.38;14.35;;;;;;;;;;6119649;23;20021;-84
2022/12/08 23:16:05;;;;;;;29.00;14.32;;;;;;;;;;6118205;23;20021;-84
2022/12/08 23:18:31;;;;;;;26.80;13.13;;;;;;;;;;6093261;23;20026;-83
2022/12/08 23:21:05;;;;;;;25.27;13.57;;;;;;;;;;6091290;23;20024;-84
2022/12/08 23:23:30;;;;;;;27.65;13.43;;;;;;;;;;6094373;23;20018;-85
2022/12/08 23:25:56;;;;;;;26.63;13.77;;;;;;;;;;6092852;23;20034;-85
2022/12/08 23:28:21;;;;;;;25.38;12.60;;;;;;;;;;6093649;23;20014;-84
2022/12/08 23:30:46;;;;;;;28.65;14.40;;;;;;;;;;6116271;23;20030;-84
2022/12/08 23:33:12;;;;;;;25.00;13.07;;;;;;;;;;6093542;23;20446;-84
2022/12/08 23:35:37;;;;;;;27.42;13.27;;;;;;;;;;6093729;23;20073;-85
2022/12/08 23:38:03;;;;;;;26.73;13.65;;;;;;;;;;6093676;23;20017;-85
2022/12/08 23:40:28;;;;;;;24.75;12.95;;;;;;;;;;6091587;23;20021;-86
2022/12/08 23:42:54;;;;;;;28.00;14.13;;;;;;;;;;6093785;23;20018;-85
2022/12/08 23:45:19;;;;;;;30.92;13.88;;;;;;;;;;6093148;23;20065;-85
2022/12/08 23:47:45;;;;;;;24.13;11.88;;;;;;;;;;6118923;23;20014;-85
2022/12/08 23:50:10;;;;;;;27.95;13.18;;;;;;;;;;6117706;23;20025;-84
2022/12/08 23:52:36;;;;;;;26.48;13.27;;;;;;;;;;6118289;23;20121;-85
2022/12/08 23:55:01;;;;;;;26.45;13.00;;;;;;;;;;6092755;23;20013;-85
2022/12/08 23:57:27;;;;;;;27.25;13.30;;;;;;;;;;6117490;23;20088;-84
2022/12/08 23:59:52;;;;;;;27.20;13.00;;;;;;;;;;6117430;23;20018;-85
